sensor_id;sensor_type;location;lat;lon;timestamp;P1;durP1;ratioP1;P2;durP2;ratioP2
11951;SDS011;6036;41.840;23.486;2022-11-02T00:00:20;7.43;;;3.03;;
11951;SDS011;6036;41.840;23.486;2022-11-02T00:02:46;12.15;;;3.47;;
11951;SDS011;6036;41.840;23.486;2022-11-02T00:05:12;23.20;;;4.40;;
11951;SDS011;6036;41.840;23.486;2022-11-02T00:07:39;9.52;;;3.20;;
11951;SDS011;6036;41.840;23.486;2022-11-02T00:10:06;9.05;;;2.47;;
11951;SDS011;6036;41.840;23.486;2022-11-02T00:12:32;13.45;;;2.33;;
11951;SDS011;6036;41.840;23.486;2022-11-02T00:14:58;8.23;;;2.15;;
11951;SDS011;6036;41.840;23.486;2022-11-02T00:17:23;7.03;;;2.67;;
11951;SDS011;6036;41.840;23.486;2022-11-02T00:19:49;7.13;;;2.22;;
11951;SDS011;6036;41.840;23.486;2022-11-02T00:22:14;8.60;;;2.40;;
11951;SDS011;6036;41.840;23.486;2022-11-02T00:24:40;8.52;;;2.45;;
11951;SDS011;6036;41.840;23.486;2022-11-02T00:27:06;5.55;;;2.22;;
11951;SDS011;6036;41.840;23.486;2022-11-02T00:29:32;3.50;;;2.00;;
11951;SDS011;6036;41.840;23.486;2022-11-02T00:31:58;10.18;;;2.20;;
11951;SDS011;6036;41.840;23.486;2022-11-02T00:34:24;5.07;;;1.95;;
11951;SDS011;6036;41.840;23.486;2022-11-02T00:36:49;5.03;;;2.33;;
11951;SDS011;6036;41.840;23.486;2022-11-02T00:39:15;7.07;;;2.15;;
11951;SDS011;6036;41.840;23.486;2022-11-02T00:41:41;5.25;;;1.58;;
11951;SDS011;6036;41.840;23.486;2022-11-02T00:44:07;4.68;;;2.08;;
11951;SDS011;6036;41.840;23.486;2022-11-02T00:46:32;3.90;;;1.90;;
11951;SDS011;6036;41.840;23.486;2022-11-02T00:48:58;6.25;;;1.77;;
11951;SDS011;6036;41.840;23.486;2022-11-02T00:51:23;4.93;;;1.98;;
11951;SDS011;6036;41.840;23.486;2022-11-02T00:53:48;9.35;;;2.22;;
11951;SDS011;6036;41.840;23.486;2022-11-02T00:56:14;4.35;;;1.90;;
11951;SDS011;6036;41.840;23.486;2022-11-02T00:58:39;4.78;;;1.77;;
11951;SDS011;6036;41.840;23.486;2022-11-02T01:01:05;7.43;;;2.33;;
11951;SDS011;6036;41.840;23.486;2022-11-02T01:03:31;3.58;;;2.38;;
11951;SDS011;6036;41.840;23.486;2022-11-02T01:05:57;5.22;;;2.15;;
11951;SDS011;6036;41.840;23.486;2022-11-02T01:08:23;7.80;;;2.42;;
11951;SDS011;6036;41.840;23.486;2022-11-02T01:10:48;12.10;;;3.83;;
11951;SDS011;6036;41.840;23.486;2022-11-02T01:13:13;8.38;;;3.38;;
11951;SDS011;6036;41.840;23.486;2022-11-02T01:15:39;6.97;;;1.77;;
11951;SDS011;6036;41.840;23.486;2022-11-02T01:18:04;4.15;;;2.00;;
11951;SDS011;6036;41.840;23.486;2022-11-02T01:20:30;5.03;;;2.38;;
11951;SDS011;6036;41.840;23.486;2022-11-02T01:22:56;6.45;;;1.77;;
11951;SDS011;6036;41.840;23.486;2022-11-02T01:25:23;6.50;;;3.22;;
11951;SDS011;6036;41.840;23.486;2022-11-02T01:27:48;8.15;;;2.90;;
11951;SDS011;6036;41.840;23.486;2022-11-02T01:30:14;7.50;;;2.40;;
11951;SDS011;6036;41.840;23.486;2022-11-02T01:32:39;4.40;;;2.42;;
11951;SDS011;6036;41.840;23.486;2022-11-02T01:35:05;6.43;;;1.92;;
11951;SDS011;6036;41.840;23.486;2022-11-02T01:37:30;5.18;;;2.05;;
11951;SDS011;6036;41.840;23.486;2022-11-02T01:39:56;6.45;;;2.13;;
11951;SDS011;6036;41.840;23.486;2022-11-02T01:42:25;5.70;;;2.08;;
11951;SDS011;6036;41.840;23.486;2022-11-02T01:44:52;9.82;;;2.05;;
11951;SDS011;6036;41.840;23.486;2022-11-02T01:49:50;6.22;;;2.42;;
11951;SDS011;6036;41.840;23.486;2022-11-02T01:52:31;7.32;;;2.28;;
11951;SDS011;6036;41.840;23.486;2022-11-02T01:55:02;8.98;;;2.33;;
11951;SDS011;6036;41.840;23.486;2022-11-02T01:57:35;5.68;;;2.72;;
11951;SDS011;6036;41.840;23.486;2022-11-02T02:00:05;5.65;;;2.25;;
11951;SDS011;6036;41.840;23.486;2022-11-02T02:02:31;5.15;;;2.40;;
11951;SDS011;6036;41.840;23.486;2022-11-02T02:05:03;4.25;;;2.05;;
11951;SDS011;6036;41.840;23.486;2022-11-02T02:07:31;6.43;;;2.22;;
11951;SDS011;6036;41.840;23.486;2022-11-02T02:09:59;3.97;;;2.25;;
11951;SDS011;6036;41.840;23.486;2022-11-02T02:12:25;7.55;;;2.78;;
11951;SDS011;6036;41.840;23.486;2022-11-02T02:14:52;4.60;;;2.08;;
11951;SDS011;6036;41.840;23.486;2022-11-02T02:28:36;6.03;;;2.17;;
11951;SDS011;6036;41.840;23.486;2022-11-02T02:33:33;5.32;;;2.38;;
11951;SDS011;6036;41.840;23.486;2022-11-02T02:38:33;5.50;;;2.08;;
11951;SDS011;6036;41.840;23.486;2022-11-02T02:46:44;5.07;;;2.10;;
11951;SDS011;6036;41.840;23.486;2022-11-02T02:49:17;7.55;;;2.33;;
11951;SDS011;6036;41.840;23.486;2022-11-02T02:51:47;8.35;;;2.30;;
11951;SDS011;6036;41.840;23.486;2022-11-02T02:54:16;10.80;;;2.50;;
11951;SDS011;6036;41.840;23.486;2022-11-02T02:56:47;6.05;;;2.00;;
11951;SDS011;6036;41.840;23.486;2022-11-02T03:02:05;7.80;;;2.25;;
11951;SDS011;6036;41.840;23.486;2022-11-02T03:04:38;7.28;;;2.40;;
11951;SDS011;6036;41.840;23.486;2022-11-02T03:07:03;6.07;;;2.20;;
11951;SDS011;6036;41.840;23.486;2022-11-02T03:09:39;7.35;;;2.70;;
11951;SDS011;6036;41.840;23.486;2022-11-02T03:15:21;6.35;;;3.00;;
11951;SDS011;6036;41.840;23.486;2022-11-02T03:20:39;5.43;;;1.85;;
11951;SDS011;6036;41.840;23.486;2022-11-02T03:29:43;5.55;;;2.50;;
11951;SDS011;6036;41.840;23.486;2022-11-02T03:32:23;7.68;;;2.80;;
11951;SDS011;6036;41.840;23.486;2022-11-02T03:34:55;4.88;;;2.95;;
11951;SDS011;6036;41.840;23.486;2022-11-02T03:37:27;8.13;;;3.05;;
11951;SDS011;6036;41.840;23.486;2022-11-02T03:40:00;4.30;;;2.42;;
11951;SDS011;6036;41.840;23.486;2022-11-02T03:42:31;5.03;;;2.92;;
11951;SDS011;6036;41.840;23.486;2022-11-02T03:45:00;8.45;;;2.63;;
11951;SDS011;6036;41.840;23.486;2022-11-02T03:47:34;8.95;;;2.60;;
11951;SDS011;6036;41.840;23.486;2022-11-02T03:50:01;4.15;;;1.70;;
11951;SDS011;6036;41.840;23.486;2022-11-02T03:52:30;6.10;;;2.25;;
11951;SDS011;6036;41.840;23.486;2022-11-02T03:57:26;6.82;;;2.00;;
11951;SDS011;6036;41.840;23.486;2022-11-02T04:00:11;4.70;;;1.67;;
11951;SDS011;6036;41.840;23.486;2022-11-02T04:02:38;8.10;;;1.77;;
11951;SDS011;6036;41.840;23.486;2022-11-02T04:05:07;6.60;;;1.90;;
11951;SDS011;6036;41.840;23.486;2022-11-02T04:07:33;4.32;;;2.60;;
11951;SDS011;6036;41.840;23.486;2022-11-02T04:10:21;3.65;;;1.42;;
11951;SDS011;6036;41.840;23.486;2022-11-02T04:12:47;5.00;;;2.00;;
11951;SDS011;6036;41.840;23.486;2022-11-02T04:15:31;9.23;;;2.83;;
11951;SDS011;6036;41.840;23.486;2022-11-02T04:17:56;9.13;;;2.78;;
11951;SDS011;6036;41.840;23.486;2022-11-02T04:20:40;5.25;;;3.03;;
11951;SDS011;6036;41.840;23.486;2022-11-02T04:23:05;5.20;;;2.10;;
11951;SDS011;6036;41.840;23.486;2022-11-02T04:25:53;5.65;;;2.45;;
11951;SDS011;6036;41.840;23.486;2022-11-02T04:28:18;8.10;;;2.50;;
11951;SDS011;6036;41.840;23.486;2022-11-02T04:30:44;8.43;;;2.38;;
11951;SDS011;6036;41.840;23.486;2022-11-02T04:33:09;9.10;;;2.28;;
11951;SDS011;6036;41.840;23.486;2022-11-02T04:35:53;7.25;;;2.10;;
11951;SDS011;6036;41.840;23.486;2022-11-02T04:38:19;5.20;;;2.75;;
11951;SDS011;6036;41.840;23.486;2022-11-02T04:41:03;7.03;;;2.38;;
11951;SDS011;6036;41.840;23.486;2022-11-02T04:43:47;5.85;;;2.00;;
11951;SDS011;6036;41.840;23.486;2022-11-02T04:46:12;3.25;;;1.90;;
11951;SDS011;6036;41.840;23.486;2022-11-02T04:48:38;6.80;;;2.30;;
11951;SDS011;6036;41.840;23.486;2022-11-02T04:51:03;8.70;;;2.78;;
11951;SDS011;6036;41.840;23.486;2022-11-02T04:53:29;8.27;;;2.22;;
11951;SDS011;6036;41.840;23.486;2022-11-02T04:55:54;7.35;;;2.17;;
11951;SDS011;6036;41.840;23.486;2022-11-02T04:58:20;4.25;;;1.85;;
11951;SDS011;6036;41.840;23.486;2022-11-02T05:00:45;6.75;;;2.63;;
11951;SDS011;6036;41.840;23.486;2022-11-02T05:03:11;5.53;;;1.98;;
11951;SDS011;6036;41.840;23.486;2022-11-02T05:05:36;3.13;;;1.98;;
11951;SDS011;6036;41.840;23.486;2022-11-02T05:08:01;6.40;;;1.83;;
11951;SDS011;6036;41.840;23.486;2022-11-02T05:10:27;8.50;;;2.33;;
11951;SDS011;6036;41.840;23.486;2022-11-02T05:12:56;6.38;;;2.75;;
11951;SDS011;6036;41.840;23.486;2022-11-02T05:15:22;5.75;;;2.05;;
11951;SDS011;6036;41.840;23.486;2022-11-02T05:17:48;9.50;;;2.90;;
11951;SDS011;6036;41.840;23.486;2022-11-02T05:20:13;8.00;;;2.58;;
11951;SDS011;6036;41.840;23.486;2022-11-02T05:22:42;15.35;;;5.72;;
11951;SDS011;6036;41.840;23.486;2022-11-02T05:25:08;9.32;;;2.85;;
11951;SDS011;6036;41.840;23.486;2022-11-02T05:27:34;8.30;;;3.88;;
11951;SDS011;6036;41.840;23.486;2022-11-02T05:30:00;6.20;;;2.75;;
11951;SDS011;6036;41.840;23.486;2022-11-02T05:32:25;10.23;;;3.78;;
11951;SDS011;6036;41.840;23.486;2022-11-02T05:34:51;6.43;;;3.50;;
11951;SDS011;6036;41.840;23.486;2022-11-02T05:37:17;6.18;;;2.45;;
11951;SDS011;6036;41.840;23.486;2022-11-02T05:39:42;6.38;;;3.45;;
11951;SDS011;6036;41.840;23.486;2022-11-02T05:42:08;7.78;;;2.30;;
11951;SDS011;6036;41.840;23.486;2022-11-02T05:44:33;8.15;;;3.67;;
11951;SDS011;6036;41.840;23.486;2022-11-02T05:46:59;8.90;;;3.63;;
11951;SDS011;6036;41.840;23.486;2022-11-02T05:49:24;14.90;;;5.75;;
11951;SDS011;6036;41.840;23.486;2022-11-02T05:51:49;15.48;;;4.85;;
11951;SDS011;6036;41.840;23.486;2022-11-02T05:54:15;16.77;;;5.95;;
11951;SDS011;6036;41.840;23.486;2022-11-02T05:56:40;15.27;;;6.47;;
11951;SDS011;6036;41.840;23.486;2022-11-02T05:59:06;18.60;;;7.93;;
11951;SDS011;6036;41.840;23.486;2022-11-02T06:01:31;15.55;;;6.40;;
11951;SDS011;6036;41.840;23.486;2022-11-02T06:03:56;16.48;;;7.70;;
11951;SDS011;6036;41.840;23.486;2022-11-02T06:06:22;12.32;;;6.07;;
11951;SDS011;6036;41.840;23.486;2022-11-02T06:08:47;16.75;;;7.72;;
11951;SDS011;6036;41.840;23.486;2022-11-02T06:11:13;20.95;;;7.47;;
11951;SDS011;6036;41.840;23.486;2022-11-02T06:13:39;22.58;;;7.38;;
11951;SDS011;6036;41.840;23.486;2022-11-02T06:16:06;18.08;;;6.28;;
11951;SDS011;6036;41.840;23.486;2022-11-02T06:18:36;13.80;;;5.70;;
11951;SDS011;6036;41.840;23.486;2022-11-02T06:21:02;24.70;;;8.30;;
11951;SDS011;6036;41.840;23.486;2022-11-02T06:23:28;18.95;;;7.22;;
11951;SDS011;6036;41.840;23.486;2022-11-02T06:25:56;17.83;;;6.88;;
11951;SDS011;6036;41.840;23.486;2022-11-02T06:28:23;16.63;;;5.97;;
11951;SDS011;6036;41.840;23.486;2022-11-02T06:30:48;11.60;;;6.13;;
11951;SDS011;6036;41.840;23.486;2022-11-02T06:33:14;19.58;;;5.05;;
11951;SDS011;6036;41.840;23.486;2022-11-02T06:35:44;10.70;;;4.10;;
11951;SDS011;6036;41.840;23.486;2022-11-02T06:40:35;6.82;;;2.47;;
11951;SDS011;6036;41.840;23.486;2022-11-02T06:43:01;9.50;;;4.25;;
11951;SDS011;6036;41.840;23.486;2022-11-02T06:45:26;13.48;;;4.10;;
11951;SDS011;6036;41.840;23.486;2022-11-02T06:47:52;7.07;;;2.70;;
11951;SDS011;6036;41.840;23.486;2022-11-02T06:50:17;7.13;;;3.20;;
11951;SDS011;6036;41.840;23.486;2022-11-02T06:52:43;15.77;;;8.00;;
11951;SDS011;6036;41.840;23.486;2022-11-02T06:55:09;22.75;;;12.77;;
11951;SDS011;6036;41.840;23.486;2022-11-02T06:57:36;23.33;;;11.70;;
11951;SDS011;6036;41.840;23.486;2022-11-02T07:00:03;21.15;;;11.50;;
11951;SDS011;6036;41.840;23.486;2022-11-02T07:02:30;19.85;;;10.40;;
11951;SDS011;6036;41.840;23.486;2022-11-02T07:04:55;23.52;;;13.98;;
11951;SDS011;6036;41.840;23.486;2022-11-02T07:07:21;29.30;;;14.88;;
11951;SDS011;6036;41.840;23.486;2022-11-02T07:09:46;26.77;;;15.75;;
11951;SDS011;6036;41.840;23.486;2022-11-02T07:12:12;34.78;;;17.70;;
11951;SDS011;6036;41.840;23.486;2022-11-02T07:14:37;32.85;;;17.33;;
11951;SDS011;6036;41.840;23.486;2022-11-02T07:17:03;36.15;;;17.63;;
11951;SDS011;6036;41.840;23.486;2022-11-02T07:19:28;39.03;;;18.98;;
11951;SDS011;6036;41.840;23.486;2022-11-02T07:21:54;36.92;;;19.55;;
11951;SDS011;6036;41.840;23.486;2022-11-02T07:24:19;30.52;;;18.67;;
11951;SDS011;6036;41.840;23.486;2022-11-02T07:26:48;31.45;;;19.33;;
11951;SDS011;6036;41.840;23.486;2022-11-02T07:29:16;25.20;;;14.52;;
11951;SDS011;6036;41.840;23.486;2022-11-02T07:31:42;27.15;;;15.15;;
11951;SDS011;6036;41.840;23.486;2022-11-02T07:34:08;14.55;;;10.65;;
11951;SDS011;6036;41.840;23.486;2022-11-02T07:36:34;20.13;;;11.05;;
11951;SDS011;6036;41.840;23.486;2022-11-02T07:38:59;20.23;;;11.38;;
11951;SDS011;6036;41.840;23.486;2022-11-02T07:41:25;23.42;;;11.57;;
11951;SDS011;6036;41.840;23.486;2022-11-02T07:43:50;15.52;;;10.02;;
11951;SDS011;6036;41.840;23.486;2022-11-02T07:46:15;18.83;;;10.27;;
11951;SDS011;6036;41.840;23.486;2022-11-02T07:48:41;15.35;;;9.63;;
11951;SDS011;6036;41.840;23.486;2022-11-02T07:51:06;21.45;;;10.18;;
11951;SDS011;6036;41.840;23.486;2022-11-02T07:53:32;19.50;;;12.15;;
11951;SDS011;6036;41.840;23.486;2022-11-02T07:55:59;22.80;;;10.50;;
11951;SDS011;6036;41.840;23.486;2022-11-02T07:58:25;17.77;;;11.85;;
11951;SDS011;6036;41.840;23.486;2022-11-02T08:00:51;25.42;;;12.82;;
11951;SDS011;6036;41.840;23.486;2022-11-02T08:03:18;20.30;;;12.73;;
11951;SDS011;6036;41.840;23.486;2022-11-02T08:05:44;19.13;;;12.75;;
11951;SDS011;6036;41.840;23.486;2022-11-02T08:08:11;17.73;;;13.40;;
11951;SDS011;6036;41.840;23.486;2022-11-02T08:10:38;21.10;;;12.18;;
11951;SDS011;6036;41.840;23.486;2022-11-02T08:13:04;19.85;;;12.75;;
11951;SDS011;6036;41.840;23.486;2022-11-02T08:15:30;18.00;;;12.23;;
11951;SDS011;6036;41.840;23.486;2022-11-02T08:18:15;17.77;;;11.20;;
11951;SDS011;6036;41.840;23.486;2022-11-02T08:20:42;16.52;;;11.35;;
11951;SDS011;6036;41.840;23.486;2022-11-02T08:23:10;24.87;;;11.57;;
11951;SDS011;6036;41.840;23.486;2022-11-02T08:25:36;17.92;;;10.10;;
11951;SDS011;6036;41.840;23.486;2022-11-02T08:28:03;12.25;;;9.40;;
11951;SDS011;6036;41.840;23.486;2022-11-02T08:30:30;13.68;;;8.68;;
11951;SDS011;6036;41.840;23.486;2022-11-02T08:33:03;13.48;;;10.63;;
11951;SDS011;6036;41.840;23.486;2022-11-02T08:35:35;13.93;;;10.50;;
11951;SDS011;6036;41.840;23.486;2022-11-02T08:38:01;13.07;;;10.55;;
11951;SDS011;6036;41.840;23.486;2022-11-02T08:40:28;14.35;;;7.68;;
11951;SDS011;6036;41.840;23.486;2022-11-02T08:42:57;19.42;;;10.02;;
11951;SDS011;6036;41.840;23.486;2022-11-02T08:45:27;7.32;;;6.05;;
11951;SDS011;6036;41.840;23.486;2022-11-02T08:47:54;12.52;;;5.78;;
11951;SDS011;6036;41.840;23.486;2022-11-02T08:50:20;11.30;;;5.03;;
11951;SDS011;6036;41.840;23.486;2022-11-02T08:52:46;7.38;;;4.13;;
11951;SDS011;6036;41.840;23.486;2022-11-02T08:55:11;11.30;;;5.53;;
11951;SDS011;6036;41.840;23.486;2022-11-02T08:57:43;8.00;;;5.75;;
11951;SDS011;6036;41.840;23.486;2022-11-02T09:00:13;11.65;;;6.63;;
11951;SDS011;6036;41.840;23.486;2022-11-02T09:02:39;10.02;;;6.15;;
11951;SDS011;6036;41.840;23.486;2022-11-02T09:05:05;10.27;;;6.53;;
11951;SDS011;6036;41.840;23.486;2022-11-02T09:07:30;13.30;;;7.15;;
11951;SDS011;6036;41.840;23.486;2022-11-02T09:09:56;12.75;;;7.45;;
11951;SDS011;6036;41.840;23.486;2022-11-02T09:12:21;14.50;;;5.85;;
11951;SDS011;6036;41.840;23.486;2022-11-02T09:14:47;11.93;;;6.90;;
11951;SDS011;6036;41.840;23.486;2022-11-02T09:17:12;8.73;;;6.00;;
11951;SDS011;6036;41.840;23.486;2022-11-02T09:19:38;10.38;;;5.20;;
11951;SDS011;6036;41.840;23.486;2022-11-02T09:22:03;10.43;;;5.13;;
11951;SDS011;6036;41.840;23.486;2022-11-02T09:24:29;9.60;;;6.20;;
11951;SDS011;6036;41.840;23.486;2022-11-02T09:26:54;6.75;;;4.55;;
11951;SDS011;6036;41.840;23.486;2022-11-02T09:29:19;8.38;;;5.30;;
11951;SDS011;6036;41.840;23.486;2022-11-02T09:31:45;9.35;;;5.57;;
11951;SDS011;6036;41.840;23.486;2022-11-02T09:34:13;13.45;;;6.00;;
11951;SDS011;6036;41.840;23.486;2022-11-02T09:36:38;8.85;;;4.88;;
11951;SDS011;6036;41.840;23.486;2022-11-02T09:39:04;9.57;;;4.68;;
11951;SDS011;6036;41.840;23.486;2022-11-02T09:41:35;10.85;;;4.30;;
11951;SDS011;6036;41.840;23.486;2022-11-02T09:47:22;9.05;;;4.93;;
11951;SDS011;6036;41.840;23.486;2022-11-02T09:49:53;4.70;;;3.15;;
11951;SDS011;6036;41.840;23.486;2022-11-02T09:52:24;7.80;;;3.30;;
11951;SDS011;6036;41.840;23.486;2022-11-02T09:54:56;5.43;;;3.05;;
11951;SDS011;6036;41.840;23.486;2022-11-02T09:57:28;10.30;;;3.50;;
11951;SDS011;6036;41.840;23.486;2022-11-02T10:05:19;5.78;;;2.30;;
11951;SDS011;6036;41.840;23.486;2022-11-02T10:16:20;13.63;;;1.92;;
11951;SDS011;6036;41.840;23.486;2022-11-02T10:18:51;10.17;;;2.23;;
11951;SDS011;6036;41.840;23.486;2022-11-02T10:21:19;5.18;;;2.20;;
11951;SDS011;6036;41.840;23.486;2022-11-02T10:26:27;6.45;;;2.00;;
11951;SDS011;6036;41.840;23.486;2022-11-02T10:28:57;4.88;;;2.47;;
11951;SDS011;6036;41.840;23.486;2022-11-02T10:33:55;5.22;;;2.10;;
11951;SDS011;6036;41.840;23.486;2022-11-02T10:36:37;5.00;;;2.17;;
11951;SDS011;6036;41.840;23.486;2022-11-02T10:39:26;6.60;;;2.35;;
11951;SDS011;6036;41.840;23.486;2022-11-02T10:52:22;6.63;;;2.10;;
11951;SDS011;6036;41.840;23.486;2022-11-02T10:54:50;2.25;;;1.17;;
11951;SDS011;6036;41.840;23.486;2022-11-02T10:57:21;4.43;;;1.90;;
11951;SDS011;6036;41.840;23.486;2022-11-02T11:00:32;6.80;;;2.03;;
11951;SDS011;6036;41.840;23.486;2022-11-02T11:05:57;4.97;;;1.52;;
11951;SDS011;6036;41.840;23.486;2022-11-02T11:16:34;6.82;;;1.70;;
11951;SDS011;6036;41.840;23.486;2022-11-02T11:19:04;8.27;;;3.00;;
11951;SDS011;6036;41.840;23.486;2022-11-02T11:21:39;3.83;;;1.67;;
11951;SDS011;6036;41.840;23.486;2022-11-02T11:26:44;8.82;;;1.65;;
11951;SDS011;6036;41.840;23.486;2022-11-02T11:29:22;3.85;;;1.38;;
11951;SDS011;6036;41.840;23.486;2022-11-02T11:31:47;5.38;;;2.05;;
11951;SDS011;6036;41.840;23.486;2022-11-02T11:34:27;7.07;;;1.48;;
11951;SDS011;6036;41.840;23.486;2022-11-02T11:37:11;7.32;;;1.65;;
11951;SDS011;6036;41.840;23.486;2022-11-02T11:39:39;3.55;;;1.60;;
11951;SDS011;6036;41.840;23.486;2022-11-02T11:42:40;4.78;;;1.75;;
11951;SDS011;6036;41.840;23.486;2022-11-02T11:45:07;4.88;;;1.50;;
11951;SDS011;6036;41.840;23.486;2022-11-02T11:47:53;5.60;;;1.65;;
11951;SDS011;6036;41.840;23.486;2022-11-02T11:50:19;6.88;;;1.77;;
11951;SDS011;6036;41.840;23.486;2022-11-02T11:52:46;6.18;;;1.70;;
11951;SDS011;6036;41.840;23.486;2022-11-02T11:55:31;4.97;;;1.65;;
11951;SDS011;6036;41.840;23.486;2022-11-02T11:58:17;5.68;;;2.30;;
11951;SDS011;6036;41.840;23.486;2022-11-02T12:00:45;2.10;;;1.63;;
11951;SDS011;6036;41.840;23.486;2022-11-02T12:03:27;8.65;;;1.48;;
11951;SDS011;6036;41.840;23.486;2022-11-02T12:05:59;10.10;;;1.80;;
11951;SDS011;6036;41.840;23.486;2022-11-02T12:08:37;6.45;;;2.20;;
11951;SDS011;6036;41.840;23.486;2022-11-02T12:14:12;6.55;;;1.50;;
11951;SDS011;6036;41.840;23.486;2022-11-02T12:17:03;4.93;;;1.60;;
11951;SDS011;6036;41.840;23.486;2022-11-02T12:19:47;6.75;;;1.33;;
11951;SDS011;6036;41.840;23.486;2022-11-02T12:25:17;4.10;;;1.63;;
11951;SDS011;6036;41.840;23.486;2022-11-02T12:28:09;3.75;;;1.63;;
11951;SDS011;6036;41.840;23.486;2022-11-02T12:30:47;4.38;;;1.85;;
11951;SDS011;6036;41.840;23.486;2022-11-02T12:46:51;7.43;;;1.85;;
11951;SDS011;6036;41.840;23.486;2022-11-02T12:50:00;7.63;;;1.80;;
11951;SDS011;6036;41.840;23.486;2022-11-02T12:52:38;3.45;;;2.10;;
11951;SDS011;6036;41.840;23.486;2022-11-02T12:55:33;5.57;;;1.95;;
11951;SDS011;6036;41.840;23.486;2022-11-02T12:58:05;5.47;;;1.20;;
11951;SDS011;6036;41.840;23.486;2022-11-02T13:00:37;4.05;;;1.55;;
11951;SDS011;6036;41.840;23.486;2022-11-02T13:03:15;3.53;;;1.38;;
11951;SDS011;6036;41.840;23.486;2022-11-02T13:05:49;5.65;;;1.10;;
11951;SDS011;6036;41.840;23.486;2022-11-02T13:08:33;5.60;;;1.50;;
11951;SDS011;6036;41.840;23.486;2022-11-02T13:11:05;5.70;;;1.17;;
11951;SDS011;6036;41.840;23.486;2022-11-02T13:13:46;3.75;;;1.10;;
11951;SDS011;6036;41.840;23.486;2022-11-02T13:16:16;5.28;;;1.35;;
11951;SDS011;6036;41.840;23.486;2022-11-02T13:18:55;3.33;;;1.90;;
11951;SDS011;6036;41.840;23.486;2022-11-02T13:21:45;5.43;;;1.10;;
11951;SDS011;6036;41.840;23.486;2022-11-02T13:24:17;5.18;;;1.67;;
11951;SDS011;6036;41.840;23.486;2022-11-02T13:26:46;6.22;;;1.05;;
11951;SDS011;6036;41.840;23.486;2022-11-02T13:29:16;5.10;;;1.30;;
11951;SDS011;6036;41.840;23.486;2022-11-02T13:31:44;1.98;;;0.80;;
11951;SDS011;6036;41.840;23.486;2022-11-02T13:34:16;3.15;;;1.10;;
11951;SDS011;6036;41.840;23.486;2022-11-02T13:36:50;2.97;;;0.90;;
11951;SDS011;6036;41.840;23.486;2022-11-02T13:39:18;1.77;;;0.90;;
11951;SDS011;6036;41.840;23.486;2022-11-02T13:44:55;5.30;;;1.15;;
11951;SDS011;6036;41.840;23.486;2022-11-02T13:47:50;3.58;;;0.60;;
11951;SDS011;6036;41.840;23.486;2022-11-02T13:50:15;4.60;;;1.00;;
11951;SDS011;6036;41.840;23.486;2022-11-02T13:52:51;3.10;;;1.00;;
11951;SDS011;6036;41.840;23.486;2022-11-02T13:55:32;1.98;;;1.13;;
11951;SDS011;6036;41.840;23.486;2022-11-02T13:58:12;2.72;;;1.00;;
11951;SDS011;6036;41.840;23.486;2022-11-02T14:00:50;1.13;;;0.73;;
11951;SDS011;6036;41.840;23.486;2022-11-02T14:03:20;4.55;;;1.05;;
11951;SDS011;6036;41.840;23.486;2022-11-02T14:06:09;2.55;;;0.77;;
11951;SDS011;6036;41.840;23.486;2022-11-02T14:08:41;7.78;;;1.15;;
11951;SDS011;6036;41.840;23.486;2022-11-02T14:26:58;4.32;;;1.40;;
11951;SDS011;6036;41.840;23.486;2022-11-02T14:40:29;4.10;;;1.35;;
11951;SDS011;6036;41.840;23.486;2022-11-02T14:48:24;4.93;;;1.30;;
11951;SDS011;6036;41.840;23.486;2022-11-02T14:51:02;2.63;;;1.00;;
11951;SDS011;6036;41.840;23.486;2022-11-02T14:53:31;3.72;;;1.10;;
11951;SDS011;6036;41.840;23.486;2022-11-02T14:56:00;2.80;;;0.90;;
11951;SDS011;6036;41.840;23.486;2022-11-02T14:58:36;4.13;;;1.00;;
11951;SDS011;6036;41.840;23.486;2022-11-02T15:01:05;2.10;;;0.80;;
11951;SDS011;6036;41.840;23.486;2022-11-02T15:03:37;4.43;;;1.20;;
11951;SDS011;6036;41.840;23.486;2022-11-02T15:06:15;1.65;;;1.05;;
11951;SDS011;6036;41.840;23.486;2022-11-02T15:19:42;4.43;;;1.20;;
11951;SDS011;6036;41.840;23.486;2022-11-02T15:25:03;2.88;;;0.90;;
11951;SDS011;6036;41.840;23.486;2022-11-02T15:27:35;1.92;;;0.90;;
11951;SDS011;6036;41.840;23.486;2022-11-02T15:30:02;3.72;;;1.30;;
11951;SDS011;6036;41.840;23.486;2022-11-02T15:32:31;2.97;;;1.08;;
11951;SDS011;6036;41.840;23.486;2022-11-02T15:35:02;4.85;;;1.45;;
11951;SDS011;6036;41.840;23.486;2022-11-02T15:37:29;3.08;;;1.10;;
11951;SDS011;6036;41.840;23.486;2022-11-02T15:40:00;3.00;;;1.17;;
11951;SDS011;6036;41.840;23.486;2022-11-02T16:01:40;3.15;;;1.50;;
11951;SDS011;6036;41.840;23.486;2022-11-02T16:04:06;4.53;;;0.82;;
11951;SDS011;6036;41.840;23.486;2022-11-02T16:06:42;2.47;;;1.23;;
11951;SDS011;6036;41.840;23.486;2022-11-02T16:14:44;4.82;;;1.10;;
11951;SDS011;6036;41.840;23.486;2022-11-02T16:17:17;5.10;;;1.23;;
11951;SDS011;6036;41.840;23.486;2022-11-02T16:19:44;4.70;;;1.05;;
11951;SDS011;6036;41.840;23.486;2022-11-02T16:22:09;3.65;;;0.85;;
11951;SDS011;6036;41.840;23.486;2022-11-02T16:24:34;5.90;;;1.25;;
11951;SDS011;6036;41.840;23.486;2022-11-02T16:27:08;4.03;;;1.27;;
11951;SDS011;6036;41.840;23.486;2022-11-02T16:29:36;8.13;;;1.20;;
11951;SDS011;6036;41.840;23.486;2022-11-02T16:32:02;4.57;;;1.40;;
11951;SDS011;6036;41.840;23.486;2022-11-02T16:34:28;4.30;;;1.15;;
11951;SDS011;6036;41.840;23.486;2022-11-02T16:36:55;4.22;;;1.80;;
11951;SDS011;6036;41.840;23.486;2022-11-02T16:41:52;3.15;;;1.10;;
11951;SDS011;6036;41.840;23.486;2022-11-02T16:44:27;4.20;;;1.05;;
11951;SDS011;6036;41.840;23.486;2022-11-02T16:49:32;2.38;;;0.85;;
11951;SDS011;6036;41.840;23.486;2022-11-02T16:52:05;3.97;;;0.95;;
11951;SDS011;6036;41.840;23.486;2022-11-02T16:54:41;4.40;;;1.35;;
11951;SDS011;6036;41.840;23.486;2022-11-02T16:59:36;5.30;;;1.30;;
11951;SDS011;6036;41.840;23.486;2022-11-02T17:02:10;3.83;;;0.93;;
11951;SDS011;6036;41.840;23.486;2022-11-02T17:04:38;3.33;;;1.40;;
11951;SDS011;6036;41.840;23.486;2022-11-02T17:09:40;4.85;;;1.23;;
11951;SDS011;6036;41.840;23.486;2022-11-02T17:12:08;5.57;;;1.55;;
11951;SDS011;6036;41.840;23.486;2022-11-02T17:14:42;1.85;;;0.90;;
11951;SDS011;6036;41.840;23.486;2022-11-02T17:19:55;4.63;;;1.15;;
11951;SDS011;6036;41.840;23.486;2022-11-02T17:22:29;5.45;;;1.58;;
11951;SDS011;6036;41.840;23.486;2022-11-02T17:25:03;6.55;;;1.73;;
11951;SDS011;6036;41.840;23.486;2022-11-02T17:27:36;4.80;;;1.23;;
11951;SDS011;6036;41.840;23.486;2022-11-02T17:30:02;3.35;;;1.10;;
11951;SDS011;6036;41.840;23.486;2022-11-02T17:32:28;4.13;;;1.30;;
11951;SDS011;6036;41.840;23.486;2022-11-02T17:34:55;4.47;;;1.35;;
11951;SDS011;6036;41.840;23.486;2022-11-02T17:39:51;4.68;;;1.20;;
11951;SDS011;6036;41.840;23.486;2022-11-02T17:42:18;4.43;;;1.10;;
11951;SDS011;6036;41.840;23.486;2022-11-02T17:47:47;3.75;;;1.85;;
11951;SDS011;6036;41.840;23.486;2022-11-02T17:50:12;3.10;;;0.82;;
11951;SDS011;6036;41.840;23.486;2022-11-02T17:52:38;2.22;;;1.20;;
11951;SDS011;6036;41.840;23.486;2022-11-02T17:55:05;6.22;;;0.85;;
11951;SDS011;6036;41.840;23.486;2022-11-02T17:57:31;6.07;;;1.33;;
11951;SDS011;6036;41.840;23.486;2022-11-02T17:59:57;3.47;;;1.30;;
11951;SDS011;6036;41.840;23.486;2022-11-02T18:02:22;4.55;;;1.30;;
11951;SDS011;6036;41.840;23.486;2022-11-02T18:04:48;3.85;;;1.10;;
11951;SDS011;6036;41.840;23.486;2022-11-02T18:07:14;5.15;;;1.20;;
11951;SDS011;6036;41.840;23.486;2022-11-02T18:09:39;3.58;;;1.80;;
11951;SDS011;6036;41.840;23.486;2022-11-02T18:12:04;5.90;;;1.05;;
11951;SDS011;6036;41.840;23.486;2022-11-02T18:14:30;7.28;;;1.65;;
11951;SDS011;6036;41.840;23.486;2022-11-02T18:16:56;2.15;;;1.02;;
11951;SDS011;6036;41.840;23.486;2022-11-02T18:19:21;5.30;;;1.35;;